Kapitan Antipov — UROW — position and weather

sailwx.info

Track history (hours):
 
Tides and Currents Weather Stations Pressure Air Temp Water Temp Dewpoint Dewpoint Depression Visibility Wind Speed Wind Dir Waves Ship Positions

Kapitan Antipov

Last reported at 2017-Nov-13 02:00 UTC. Time now 2017-Nov-19 16:15 UTC.
Position N 47°35' E 019°04'.

Length 177 m; draft 1.5 m.

Type: Ship. MMSI: 272037300.

Date/timePositionNaut miles runAvg speedWind from/ knotsBaromVisibWave heightAir tempDewpointWater temp
2017-Nov-13 02:00N 47°35' E 019°04'0 0.2
2017-Nov-13 01:30N 47°35' E 019°04'2 3.8
2017-Nov-13 01:00N 47°33' E 019°04'2 3.7
2017-Nov-13 00:30N 47°31' E 019°03'2 3.6
2017-Nov-13 00:00N 47°29' E 019°03'2 3.2
2017-Nov-12 23:30N 47°28' E 019°04'0 0.5
2017-Nov-12 23:00N 47°28' E 019°04'0 0.3
2017-Nov-12 22:30N 47°27' E 019°04'2 4.1
2017-Nov-12 22:00N 47°26' E 019°03'2 4.2
2017-Nov-12 21:30N 47°24' E 019°02'1 1.1
2017-Nov-12 20:26N 47°23' E 019°00'4 8.8
2017-Nov-12 20:00N 47°27' E 019°03'1 1.7
2017-Nov-12 19:30N 47°27' E 019°03'2 3.9
2017-Nov-12 19:00N 47°25' E 019°03'2 4.0
2017-Nov-12 18:30N 47°24' E 019°02'  
2017-Nov-10 11:53N 47°23' E 018°59'0 0.0
2017-Nov-10 11:30N 47°23' E 018°59'0 0.0
2017-Nov-09 13:31N 47°23' E 018°59'0 0.0
2017-Nov-08 18:25N 47°23' E 018°59'0 0.0
2017-Nov-08 16:58N 47°23' E 018°59'0 0.0
2017-Nov-08 15:45N 47°23' E 018°59'0 0.0
2017-Nov-08 15:10N 47°23' E 018°59'0 0.0
2017-Nov-08 14:38N 47°23' E 018°59'0 0.0
2017-Nov-07 12:45N 47°23' E 018°59'0 0.0
2017-Nov-07 12:30N 47°23' E 018°59'0 0.0
2017-Nov-07 09:11N 47°23' E 018°59'0 0.0
2017-Nov-07 05:36N 47°23' E 018°59'0 0.0
2017-Nov-07 04:31N 47°23' E 018°59'0 0.0
2017-Nov-07 03:23N 47°23' E 018°59'0 0.0
2017-Nov-07 02:54N 47°23' E 018°59'0 0.0
2017-Nov-07 01:53N 47°23' E 018°59'0 0.0
2017-Nov-07 00:56N 47°23' E 018°59'0 0.0
2017-Nov-07 00:21N 47°23' E 018°59'0 0.0
2017-Nov-06 23:58N 47°23' E 018°59'0 0.0
2017-Nov-06 23:30N 47°23' E 018°59'  
2017-Nov-03 13:07N 47°16' E 018°55'  
Track history (hours):
 
Tides and Currents Weather Stations Pressure Air Temp Water Temp Dewpoint Dewpoint Depression Visibility Wind Speed Wind Dir Waves Ship Positions

Kapitan Antipov

Last reported at 2017-Nov-13 02:00 UTC. Time now 2017-Nov-19 16:15 UTC.
Position N 47°35' E 019°04'.

Length 177 m; draft 1.5 m.

Type: Ship. MMSI: 272037300.

Date/timePositionNaut miles runAvg speedWind from/ knotsBaromVisibWave heightAir tempDewpointWater temp
2017-Nov-13 02:00N 47°35' E 019°04'0 0.2
2017-Nov-13 01:30N 47°35' E 019°04'2 3.8
2017-Nov-13 01:00N 47°33' E 019°04'2 3.7
2017-Nov-13 00:30N 47°31' E 019°03'2 3.6
2017-Nov-13 00:00N 47°29' E 019°03'2 3.2
2017-Nov-12 23:30N 47°28' E 019°04'0 0.5
2017-Nov-12 23:00N 47°28' E 019°04'0 0.3
2017-Nov-12 22:30N 47°27' E 019°04'2 4.1
2017-Nov-12 22:00N 47°26' E 019°03'2 4.2
2017-Nov-12 21:30N 47°24' E 019°02'1 1.1
2017-Nov-12 20:26N 47°23' E 019°00'4 8.8
2017-Nov-12 20:00N 47°27' E 019°03'1 1.7
2017-Nov-12 19:30N 47°27' E 019°03'2 3.9
2017-Nov-12 19:00N 47°25' E 019°03'2 4.0
2017-Nov-12 18:30N 47°24' E 019°02'  
2017-Nov-10 11:53N 47°23' E 018°59'0 0.0
2017-Nov-10 11:30N 47°23' E 018°59'0 0.0
2017-Nov-09 13:31N 47°23' E 018°59'0 0.0
2017-Nov-08 18:25N 47°23' E 018°59'0 0.0
2017-Nov-08 16:58N 47°23' E 018°59'0 0.0
2017-Nov-08 15:45N 47°23' E 018°59'0 0.0
2017-Nov-08 15:10N 47°23' E 018°59'0 0.0
2017-Nov-08 14:38N 47°23' E 018°59'0 0.0
2017-Nov-07 12:45N 47°23' E 018°59'0 0.0
2017-Nov-07 12:30N 47°23' E 018°59'0 0.0
2017-Nov-07 09:11N 47°23' E 018°59'0 0.0
2017-Nov-07 05:36N 47°23' E 018°59'0 0.0
2017-Nov-07 04:31N 47°23' E 018°59'0 0.0
2017-Nov-07 03:23N 47°23' E 018°59'0 0.0
2017-Nov-07 02:54N 47°23' E 018°59'0 0.0
2017-Nov-07 01:53N 47°23' E 018°59'0 0.0
2017-Nov-07 00:56N 47°23' E 018°59'0 0.0
2017-Nov-07 00:21N 47°23' E 018°59'0 0.0
2017-Nov-06 23:58N 47°23' E 018°59'0 0.0
2017-Nov-06 23:30N 47°23' E 018°59'  
2017-Nov-03 13:07N 47°16' E 018°55'  

Dump ship's entire track history